sensor_id;sensor_type;location;lat;lon;timestamp;P1;durP1;ratioP1;P2;durP2;ratioP2
70303;SDS011;57712;48.752;11.348;2022-12-07T00:01:24;10.55;;;5.00;;
70303;SDS011;57712;48.752;11.348;2022-12-07T00:03:53;9.07;;;4.70;;
70303;SDS011;57712;48.752;11.348;2022-12-07T00:06:23;10.48;;;5.10;;
70303;SDS011;57712;48.752;11.348;2022-12-07T00:08:49;8.95;;;4.50;;
70303;SDS011;57712;48.752;11.348;2022-12-07T00:11:20;10.65;;;5.53;;
70303;SDS011;57712;48.752;11.348;2022-12-07T00:13:50;10.73;;;5.07;;
70303;SDS011;57712;48.752;11.348;2022-12-07T00:16:19;10.25;;;5.38;;
70303;SDS011;57712;48.752;11.348;2022-12-07T00:18:47;10.43;;;4.85;;
70303;SDS011;57712;48.752;11.348;2022-12-07T00:21:15;9.23;;;4.97;;
70303;SDS011;57712;48.752;11.348;2022-12-07T00:23:44;9.87;;;5.10;;
70303;SDS011;57712;48.752;11.348;2022-12-07T00:26:16;9.35;;;4.72;;
70303;SDS011;57712;48.752;11.348;2022-12-07T00:28:45;8.40;;;4.53;;
70303;SDS011;57712;48.752;11.348;2022-12-07T00:31:14;8.63;;;4.22;;
70303;SDS011;57712;48.752;11.348;2022-12-07T00:33:43;8.85;;;4.65;;
70303;SDS011;57712;48.752;11.348;2022-12-07T00:36:11;10.47;;;4.70;;
70303;SDS011;57712;48.752;11.348;2022-12-07T00:38:39;8.73;;;4.68;;
70303;SDS011;57712;48.752;11.348;2022-12-07T00:41:09;9.00;;;4.82;;
70303;SDS011;57712;48.752;11.348;2022-12-07T00:43:36;10.68;;;4.72;;
70303;SDS011;57712;48.752;11.348;2022-12-07T00:46:02;9.73;;;4.80;;
70303;SDS011;57712;48.752;11.348;2022-12-07T00:48:29;11.00;;;5.30;;
70303;SDS011;57712;48.752;11.348;2022-12-07T00:50:56;10.10;;;4.85;;
70303;SDS011;57712;48.752;11.348;2022-12-07T00:53:22;9.43;;;4.90;;
70303;SDS011;57712;48.752;11.348;2022-12-07T00:55:50;9.07;;;4.72;;
70303;SDS011;57712;48.752;11.348;2022-12-07T00:58:16;9.48;;;4.97;;
70303;SDS011;57712;48.752;11.348;2022-12-07T01:00:43;11.10;;;5.70;;
70303;SDS011;57712;48.752;11.348;2022-12-07T01:03:11;10.32;;;5.32;;
70303;SDS011;57712;48.752;11.348;2022-12-07T01:05:38;10.25;;;5.65;;
70303;SDS011;57712;48.752;11.348;2022-12-07T01:08:06;10.82;;;5.35;;
70303;SDS011;57712;48.752;11.348;2022-12-07T01:10:33;11.00;;;6.00;;
70303;SDS011;57712;48.752;11.348;2022-12-07T01:12:59;11.53;;;6.30;;
70303;SDS011;57712;48.752;11.348;2022-12-07T01:15:26;12.27;;;6.32;;
70303;SDS011;57712;48.752;11.348;2022-12-07T01:17:53;12.68;;;6.90;;
70303;SDS011;57712;48.752;11.348;2022-12-07T01:20:20;13.00;;;7.28;;
70303;SDS011;57712;48.752;11.348;2022-12-07T01:22:47;14.27;;;8.52;;
70303;SDS011;57712;48.752;11.348;2022-12-07T01:25:13;13.20;;;7.50;;
70303;SDS011;57712;48.752;11.348;2022-12-07T01:27:40;17.13;;;8.60;;
70303;SDS011;57712;48.752;11.348;2022-12-07T01:30:07;15.63;;;8.68;;
70303;SDS011;57712;48.752;11.348;2022-12-07T01:32:34;15.85;;;9.20;;
70303;SDS011;57712;48.752;11.348;2022-12-07T01:35:00;16.15;;;8.45;;
70303;SDS011;57712;48.752;11.348;2022-12-07T01:37:27;14.90;;;8.37;;
70303;SDS011;57712;48.752;11.348;2022-12-07T01:39:53;14.32;;;8.07;;
70303;SDS011;57712;48.752;11.348;2022-12-07T01:42:20;19.13;;;7.72;;
70303;SDS011;57712;48.752;11.348;2022-12-07T01:47:41;11.93;;;6.68;;
70303;SDS011;57712;48.752;11.348;2022-12-07T01:50:09;11.60;;;6.73;;
70303;SDS011;57712;48.752;11.348;2022-12-07T01:52:36;13.32;;;7.00;;
70303;SDS011;57712;48.752;11.348;2022-12-07T01:55:09;12.13;;;6.43;;
70303;SDS011;57712;48.752;11.348;2022-12-07T01:57:40;11.55;;;6.07;;
70303;SDS011;57712;48.752;11.348;2022-12-07T02:00:10;11.45;;;5.93;;
70303;SDS011;57712;48.752;11.348;2022-12-07T02:02:39;11.75;;;6.03;;
70303;SDS011;57712;48.752;11.348;2022-12-07T02:05:10;11.68;;;6.20;;
70303;SDS011;57712;48.752;11.348;2022-12-07T02:07:37;12.60;;;5.88;;
70303;SDS011;57712;48.752;11.348;2022-12-07T02:10:12;11.65;;;5.88;;
70303;SDS011;57712;48.752;11.348;2022-12-07T02:12:38;13.82;;;6.38;;
70303;SDS011;57712;48.752;11.348;2022-12-07T02:15:06;12.20;;;6.20;;
70303;SDS011;57712;48.752;11.348;2022-12-07T02:23:22;13.00;;;6.70;;
70303;SDS011;57712;48.752;11.348;2022-12-07T02:25:57;13.20;;;6.53;;
70303;SDS011;57712;48.752;11.348;2022-12-07T02:28:28;13.07;;;6.17;;
70303;SDS011;57712;48.752;11.348;2022-12-07T02:31:02;12.50;;;6.68;;
70303;SDS011;57712;48.752;11.348;2022-12-07T02:33:45;13.70;;;6.60;;
70303;SDS011;57712;48.752;11.348;2022-12-07T02:36:17;13.07;;;6.57;;
70303;SDS011;57712;48.752;11.348;2022-12-07T02:39:00;13.73;;;7.28;;
70303;SDS011;57712;48.752;11.348;2022-12-07T02:41:34;16.00;;;7.07;;
70303;SDS011;57712;48.752;11.348;2022-12-07T02:44:05;15.13;;;7.65;;
70303;SDS011;57712;48.752;11.348;2022-12-07T02:46:40;13.70;;;7.07;;
70303;SDS011;57712;48.752;11.348;2022-12-07T02:49:13;15.38;;;7.50;;
70303;SDS011;57712;48.752;11.348;2022-12-07T02:51:41;15.70;;;7.40;;
70303;SDS011;57712;48.752;11.348;2022-12-07T02:54:11;14.60;;;7.30;;
70303;SDS011;57712;48.752;11.348;2022-12-07T03:05:08;16.55;;;8.02;;
70303;SDS011;57712;48.752;11.348;2022-12-07T03:13:28;16.45;;;8.05;;
70303;SDS011;57712;48.752;11.348;2022-12-07T03:16:20;15.13;;;7.50;;
70303;SDS011;57712;48.752;11.348;2022-12-07T03:19:14;15.60;;;7.75;;
70303;SDS011;57712;48.752;11.348;2022-12-07T03:21:48;16.27;;;7.83;;
70303;SDS011;57712;48.752;11.348;2022-12-07T03:24:27;16.40;;;8.05;;
70303;SDS011;57712;48.752;11.348;2022-12-07T03:26:58;16.65;;;8.07;;
70303;SDS011;57712;48.752;11.348;2022-12-07T03:29:33;17.15;;;8.75;;
70303;SDS011;57712;48.752;11.348;2022-12-07T03:32:11;18.35;;;9.60;;
70303;SDS011;57712;48.752;11.348;2022-12-07T03:34:52;21.43;;;9.90;;
70303;SDS011;57712;48.752;11.348;2022-12-07T03:37:34;22.40;;;10.80;;
70303;SDS011;57712;48.752;11.348;2022-12-07T03:40:08;22.33;;;11.35;;
70303;SDS011;57712;48.752;11.348;2022-12-07T03:42:44;21.65;;;11.50;;
70303;SDS011;57712;48.752;11.348;2022-12-07T03:45:11;21.50;;;11.02;;
70303;SDS011;57712;48.752;11.348;2022-12-07T03:47:42;19.00;;;9.90;;
70303;SDS011;57712;48.752;11.348;2022-12-07T03:50:24;19.50;;;10.27;;
70303;SDS011;57712;48.752;11.348;2022-12-07T03:53:02;20.90;;;10.65;;
70303;SDS011;57712;48.752;11.348;2022-12-07T03:55:38;18.77;;;10.25;;
70303;SDS011;57712;48.752;11.348;2022-12-07T03:58:09;19.15;;;10.02;;
70303;SDS011;57712;48.752;11.348;2022-12-07T04:00:38;21.03;;;10.37;;
70303;SDS011;57712;48.752;11.348;2022-12-07T04:03:07;17.60;;;9.15;;
70303;SDS011;57712;48.752;11.348;2022-12-07T04:05:34;18.55;;;9.25;;
70303;SDS011;57712;48.752;11.348;2022-12-07T04:08:01;17.73;;;9.43;;
70303;SDS011;57712;48.752;11.348;2022-12-07T04:10:27;18.08;;;9.27;;
70303;SDS011;57712;48.752;11.348;2022-12-07T04:12:54;17.88;;;9.10;;
70303;SDS011;57712;48.752;11.348;2022-12-07T04:15:21;17.25;;;8.55;;
70303;SDS011;57712;48.752;11.348;2022-12-07T04:17:48;15.73;;;8.27;;
70303;SDS011;57712;48.752;11.348;2022-12-07T04:20:15;16.67;;;8.40;;
70303;SDS011;57712;48.752;11.348;2022-12-07T04:22:42;15.65;;;7.70;;
70303;SDS011;57712;48.752;11.348;2022-12-07T04:25:08;17.90;;;8.83;;
70303;SDS011;57712;48.752;11.348;2022-12-07T04:27:35;18.15;;;8.80;;
70303;SDS011;57712;48.752;11.348;2022-12-07T04:30:01;16.40;;;8.68;;
70303;SDS011;57712;48.752;11.348;2022-12-07T04:32:29;17.60;;;8.43;;
70303;SDS011;57712;48.752;11.348;2022-12-07T04:34:55;17.45;;;8.35;;
70303;SDS011;57712;48.752;11.348;2022-12-07T04:37:22;19.23;;;8.63;;
70303;SDS011;57712;48.752;11.348;2022-12-07T04:39:49;18.42;;;8.98;;
70303;SDS011;57712;48.752;11.348;2022-12-07T04:42:16;17.27;;;8.10;;
70303;SDS011;57712;48.752;11.348;2022-12-07T04:44:42;19.63;;;9.25;;
70303;SDS011;57712;48.752;11.348;2022-12-07T04:47:08;16.67;;;8.80;;
70303;SDS011;57712;48.752;11.348;2022-12-07T04:49:35;17.67;;;8.37;;
70303;SDS011;57712;48.752;11.348;2022-12-07T04:52:01;19.73;;;9.75;;
70303;SDS011;57712;48.752;11.348;2022-12-07T04:54:28;18.15;;;9.00;;
70303;SDS011;57712;48.752;11.348;2022-12-07T04:56:55;24.67;;;10.70;;
70303;SDS011;57712;48.752;11.348;2022-12-07T04:59:21;21.85;;;10.32;;
70303;SDS011;57712;48.752;11.348;2022-12-07T05:01:48;32.63;;;13.20;;
70303;SDS011;57712;48.752;11.348;2022-12-07T05:04:14;42.38;;;14.73;;
70303;SDS011;57712;48.752;11.348;2022-12-07T05:06:42;45.58;;;16.05;;
70303;SDS011;57712;48.752;11.348;2022-12-07T05:09:09;34.25;;;13.05;;
70303;SDS011;57712;48.752;11.348;2022-12-07T05:11:36;37.83;;;13.90;;
70303;SDS011;57712;48.752;11.348;2022-12-07T05:14:07;49.60;;;17.20;;
70303;SDS011;57712;48.752;11.348;2022-12-07T05:16:42;24.08;;;10.50;;
70303;SDS011;57712;48.752;11.348;2022-12-07T05:19:10;23.40;;;10.70;;
70303;SDS011;57712;48.752;11.348;2022-12-07T05:21:37;25.50;;;12.15;;
70303;SDS011;57712;48.752;11.348;2022-12-07T05:24:04;21.88;;;10.80;;
70303;SDS011;57712;48.752;11.348;2022-12-07T05:26:32;21.40;;;10.05;;
70303;SDS011;57712;48.752;11.348;2022-12-07T05:28:59;24.10;;;11.73;;
70303;SDS011;57712;48.752;11.348;2022-12-07T05:31:26;30.05;;;14.82;;
70303;SDS011;57712;48.752;11.348;2022-12-07T05:33:54;30.55;;;13.82;;
70303;SDS011;57712;48.752;11.348;2022-12-07T05:36:21;19.60;;;9.35;;
70303;SDS011;57712;48.752;11.348;2022-12-07T05:38:47;19.60;;;9.53;;
70303;SDS011;57712;48.752;11.348;2022-12-07T05:41:15;20.20;;;9.23;;
70303;SDS011;57712;48.752;11.348;2022-12-07T05:44:01;20.40;;;8.98;;
70303;SDS011;57712;48.752;11.348;2022-12-07T05:46:28;19.50;;;9.25;;
70303;SDS011;57712;48.752;11.348;2022-12-07T05:48:54;21.00;;;9.80;;
70303;SDS011;57712;48.752;11.348;2022-12-07T05:51:21;19.95;;;9.90;;
70303;SDS011;57712;48.752;11.348;2022-12-07T05:53:47;21.63;;;10.02;;
70303;SDS011;57712;48.752;11.348;2022-12-07T05:56:14;19.45;;;9.73;;
70303;SDS011;57712;48.752;11.348;2022-12-07T05:58:41;20.58;;;9.23;;
70303;SDS011;57712;48.752;11.348;2022-12-07T06:01:26;22.35;;;9.57;;
70303;SDS011;57712;48.752;11.348;2022-12-07T06:03:53;20.77;;;9.63;;
70303;SDS011;57712;48.752;11.348;2022-12-07T06:06:19;23.10;;;9.38;;
70303;SDS011;57712;48.752;11.348;2022-12-07T06:08:46;18.30;;;9.48;;
70303;SDS011;57712;48.752;11.348;2022-12-07T06:11:12;22.45;;;10.63;;
70303;SDS011;57712;48.752;11.348;2022-12-07T06:13:57;20.40;;;9.18;;
70303;SDS011;57712;48.752;11.348;2022-12-07T06:16:24;18.50;;;9.10;;
70303;SDS011;57712;48.752;11.348;2022-12-07T06:18:50;21.08;;;9.82;;
70303;SDS011;57712;48.752;11.348;2022-12-07T06:21:17;21.30;;;9.05;;
70303;SDS011;57712;48.752;11.348;2022-12-07T06:23:43;21.27;;;8.95;;
70303;SDS011;57712;48.752;11.348;2022-12-07T06:26:10;20.20;;;9.00;;
70303;SDS011;57712;48.752;11.348;2022-12-07T06:28:36;21.40;;;9.23;;
70303;SDS011;57712;48.752;11.348;2022-12-07T06:31:03;18.88;;;7.85;;
70303;SDS011;57712;48.752;11.348;2022-12-07T06:33:36;19.20;;;8.68;;
70303;SDS011;57712;48.752;11.348;2022-12-07T06:36:04;20.63;;;9.60;;
70303;SDS011;57712;48.752;11.348;2022-12-07T06:38:31;20.00;;;9.75;;
70303;SDS011;57712;48.752;11.348;2022-12-07T06:40:58;19.60;;;9.30;;
70303;SDS011;57712;48.752;11.348;2022-12-07T06:43:24;21.00;;;10.10;;
70303;SDS011;57712;48.752;11.348;2022-12-07T06:45:51;23.58;;;11.35;;
70303;SDS011;57712;48.752;11.348;2022-12-07T06:48:17;23.48;;;10.85;;
70303;SDS011;57712;48.752;11.348;2022-12-07T06:50:44;24.35;;;10.18;;
70303;SDS011;57712;48.752;11.348;2022-12-07T06:53:19;24.63;;;11.35;;
70303;SDS011;57712;48.752;11.348;2022-12-07T06:55:45;25.15;;;10.95;;
70303;SDS011;57712;48.752;11.348;2022-12-07T06:58:12;23.90;;;10.88;;
70303;SDS011;57712;48.752;11.348;2022-12-07T07:00:38;23.27;;;10.68;;
70303;SDS011;57712;48.752;11.348;2022-12-07T07:03:05;27.35;;;11.13;;
70303;SDS011;57712;48.752;11.348;2022-12-07T07:05:32;27.27;;;11.95;;
70303;SDS011;57712;48.752;11.348;2022-12-07T07:07:59;28.55;;;11.93;;
70303;SDS011;57712;48.752;11.348;2022-12-07T07:10:45;28.83;;;12.73;;
70303;SDS011;57712;48.752;11.348;2022-12-07T07:13:12;26.15;;;11.60;;
70303;SDS011;57712;48.752;11.348;2022-12-07T07:15:39;26.40;;;11.50;;
70303;SDS011;57712;48.752;11.348;2022-12-07T07:18:06;27.15;;;12.95;;
70303;SDS011;57712;48.752;11.348;2022-12-07T07:20:33;29.17;;;13.02;;
70303;SDS011;57712;48.752;11.348;2022-12-07T07:23:00;29.42;;;12.98;;
70303;SDS011;57712;48.752;11.348;2022-12-07T07:25:26;32.38;;;15.07;;
70303;SDS011;57712;48.752;11.348;2022-12-07T07:27:53;35.17;;;15.98;;
70303;SDS011;57712;48.752;11.348;2022-12-07T07:30:19;44.10;;;19.63;;
70303;SDS011;57712;48.752;11.348;2022-12-07T07:32:46;36.95;;;16.83;;
70303;SDS011;57712;48.752;11.348;2022-12-07T07:35:13;36.55;;;16.85;;
70303;SDS011;57712;48.752;11.348;2022-12-07T07:37:40;29.30;;;13.23;;
70303;SDS011;57712;48.752;11.348;2022-12-07T07:40:07;30.52;;;12.93;;
70303;SDS011;57712;48.752;11.348;2022-12-07T07:42:36;26.67;;;12.25;;
70303;SDS011;57712;48.752;11.348;2022-12-07T07:45:02;27.60;;;12.25;;
70303;SDS011;57712;48.752;11.348;2022-12-07T07:47:29;26.25;;;13.38;;
70303;SDS011;57712;48.752;11.348;2022-12-07T07:49:56;25.20;;;11.10;;
70303;SDS011;57712;48.752;11.348;2022-12-07T07:52:23;24.58;;;10.93;;
70303;SDS011;57712;48.752;11.348;2022-12-07T07:54:49;23.85;;;11.10;;
70303;SDS011;57712;48.752;11.348;2022-12-07T07:57:16;26.95;;;15.13;;
70303;SDS011;57712;48.752;11.348;2022-12-07T07:59:43;31.80;;;19.92;;
70303;SDS011;57712;48.752;11.348;2022-12-07T08:02:13;25.05;;;13.35;;
70303;SDS011;57712;48.752;11.348;2022-12-07T08:04:41;25.30;;;12.95;;
70303;SDS011;57712;48.752;11.348;2022-12-07T08:07:07;20.50;;;11.18;;
70303;SDS011;57712;48.752;11.348;2022-12-07T08:09:34;22.35;;;12.27;;
70303;SDS011;57712;48.752;11.348;2022-12-07T08:12:00;22.95;;;12.35;;
70303;SDS011;57712;48.752;11.348;2022-12-07T08:14:27;23.40;;;13.43;;
70303;SDS011;57712;48.752;11.348;2022-12-07T08:16:55;20.52;;;11.82;;
70303;SDS011;57712;48.752;11.348;2022-12-07T08:19:21;21.10;;;11.93;;
70303;SDS011;57712;48.752;11.348;2022-12-07T08:21:48;20.08;;;10.02;;
70303;SDS011;57712;48.752;11.348;2022-12-07T08:24:14;19.85;;;10.23;;
70303;SDS011;57712;48.752;11.348;2022-12-07T08:26:41;20.42;;;9.75;;
70303;SDS011;57712;48.752;11.348;2022-12-07T08:29:08;21.20;;;10.65;;
70303;SDS011;57712;48.752;11.348;2022-12-07T08:31:34;19.33;;;9.40;;
70303;SDS011;57712;48.752;11.348;2022-12-07T08:34:02;22.05;;;11.05;;
70303;SDS011;57712;48.752;11.348;2022-12-07T08:36:29;20.45;;;9.90;;
70303;SDS011;57712;48.752;11.348;2022-12-07T08:38:55;21.08;;;12.85;;
70303;SDS011;57712;48.752;11.348;2022-12-07T08:41:41;20.20;;;9.30;;
70303;SDS011;57712;48.752;11.348;2022-12-07T08:44:08;18.20;;;8.90;;
70303;SDS011;57712;48.752;11.348;2022-12-07T08:46:36;23.27;;;10.27;;
70303;SDS011;57712;48.752;11.348;2022-12-07T08:49:07;21.42;;;10.57;;
70303;SDS011;57712;48.752;11.348;2022-12-07T08:51:39;21.17;;;10.00;;
70303;SDS011;57712;48.752;11.348;2022-12-07T08:54:07;19.45;;;9.68;;
70303;SDS011;57712;48.752;11.348;2022-12-07T08:56:37;19.67;;;9.50;;
70303;SDS011;57712;48.752;11.348;2022-12-07T08:59:04;20.73;;;10.10;;
70303;SDS011;57712;48.752;11.348;2022-12-07T09:01:32;22.27;;;10.23;;
70303;SDS011;57712;48.752;11.348;2022-12-07T09:03:59;19.98;;;10.57;;
70303;SDS011;57712;48.752;11.348;2022-12-07T09:06:25;21.98;;;10.93;;
70303;SDS011;57712;48.752;11.348;2022-12-07T09:08:53;23.05;;;11.63;;
70303;SDS011;57712;48.752;11.348;2022-12-07T09:11:24;25.83;;;11.38;;
70303;SDS011;57712;48.752;11.348;2022-12-07T09:13:54;24.67;;;12.50;;
70303;SDS011;57712;48.752;11.348;2022-12-07T09:16:20;23.90;;;11.77;;
70303;SDS011;57712;48.752;11.348;2022-12-07T09:18:47;22.25;;;11.57;;
70303;SDS011;57712;48.752;11.348;2022-12-07T09:21:14;23.83;;;12.00;;
70303;SDS011;57712;48.752;11.348;2022-12-07T09:23:41;26.98;;;12.98;;
70303;SDS011;57712;48.752;11.348;2022-12-07T09:26:08;26.70;;;13.55;;
70303;SDS011;57712;48.752;11.348;2022-12-07T09:28:36;27.52;;;14.13;;
70303;SDS011;57712;48.752;11.348;2022-12-07T09:31:03;28.05;;;14.60;;
70303;SDS011;57712;48.752;11.348;2022-12-07T09:33:54;26.80;;;14.30;;
70303;SDS011;57712;48.752;11.348;2022-12-07T09:36:22;25.77;;;13.00;;
70303;SDS011;57712;48.752;11.348;2022-12-07T09:38:49;23.95;;;12.38;;
70303;SDS011;57712;48.752;11.348;2022-12-07T09:41:15;24.23;;;12.18;;
70303;SDS011;57712;48.752;11.348;2022-12-07T09:43:42;21.65;;;10.73;;
70303;SDS011;57712;48.752;11.348;2022-12-07T09:46:13;21.97;;;10.90;;
70303;SDS011;57712;48.752;11.348;2022-12-07T09:48:43;21.55;;;11.25;;
70303;SDS011;57712;48.752;11.348;2022-12-07T09:51:16;20.85;;;10.70;;
70303;SDS011;57712;48.752;11.348;2022-12-07T09:53:51;20.23;;;9.93;;
70303;SDS011;57712;48.752;11.348;2022-12-07T09:56:20;23.30;;;11.23;;
70303;SDS011;57712;48.752;11.348;2022-12-07T09:58:48;21.30;;;10.77;;
70303;SDS011;57712;48.752;11.348;2022-12-07T10:01:16;20.95;;;9.60;;
70303;SDS011;57712;48.752;11.348;2022-12-07T10:03:53;21.48;;;10.68;;
70303;SDS011;57712;48.752;11.348;2022-12-07T10:06:25;20.27;;;9.73;;
70303;SDS011;57712;48.752;11.348;2022-12-07T10:08:51;24.17;;;11.65;;
70303;SDS011;57712;48.752;11.348;2022-12-07T10:11:18;22.57;;;10.43;;
70303;SDS011;57712;48.752;11.348;2022-12-07T10:13:49;19.38;;;9.52;;
70303;SDS011;57712;48.752;11.348;2022-12-07T10:18:50;19.35;;;8.98;;
70303;SDS011;57712;48.752;11.348;2022-12-07T10:21:25;20.13;;;10.23;;
70303;SDS011;57712;48.752;11.348;2022-12-07T10:24:03;16.97;;;8.83;;
70303;SDS011;57712;48.752;11.348;2022-12-07T10:34:40;15.98;;;7.30;;
70303;SDS011;57712;48.752;11.348;2022-12-07T10:39:45;18.17;;;7.88;;
70303;SDS011;57712;48.752;11.348;2022-12-07T10:42:28;17.25;;;8.38;;
70303;SDS011;57712;48.752;11.348;2022-12-07T10:47:36;17.80;;;8.75;;
70303;SDS011;57712;48.752;11.348;2022-12-07T10:53:20;16.98;;;7.50;;
70303;SDS011;57712;48.752;11.348;2022-12-07T11:12:41;15.38;;;7.47;;
70303;SDS011;57712;48.752;11.348;2022-12-07T11:15:22;14.88;;;7.53;;
70303;SDS011;57712;48.752;11.348;2022-12-07T11:31:24;16.03;;;7.63;;
70303;SDS011;57712;48.752;11.348;2022-12-07T11:34:06;14.18;;;7.30;;
70303;SDS011;57712;48.752;11.348;2022-12-07T11:36:41;15.65;;;7.40;;
70303;SDS011;57712;48.752;11.348;2022-12-07T11:39:26;17.17;;;8.23;;
70303;SDS011;57712;48.752;11.348;2022-12-07T11:42:04;17.42;;;8.25;;
70303;SDS011;57712;48.752;11.348;2022-12-07T11:50:21;16.65;;;7.95;;
70303;SDS011;57712;48.752;11.348;2022-12-07T11:52:56;15.38;;;6.80;;
70303;SDS011;57712;48.752;11.348;2022-12-07T11:55:49;14.88;;;7.10;;
70303;SDS011;57712;48.752;11.348;2022-12-07T12:06:43;13.52;;;6.53;;
70303;SDS011;57712;48.752;11.348;2022-12-07T12:12:07;14.67;;;6.73;;
70303;SDS011;57712;48.752;11.348;2022-12-07T12:15:22;16.52;;;7.10;;
70303;SDS011;57712;48.752;11.348;2022-12-07T12:18:04;16.40;;;7.88;;
70303;SDS011;57712;48.752;11.348;2022-12-07T12:23:37;15.15;;;6.90;;
70303;SDS011;57712;48.752;11.348;2022-12-07T12:26:18;19.40;;;6.97;;
70303;SDS011;57712;48.752;11.348;2022-12-07T12:31:34;21.45;;;8.52;;
70303;SDS011;57712;48.752;11.348;2022-12-07T12:34:29;16.80;;;7.78;;
70303;SDS011;57712;48.752;11.348;2022-12-07T12:36:57;24.65;;;11.13;;
70303;SDS011;57712;48.752;11.348;2022-12-07T12:39:24;15.87;;;7.47;;
70303;SDS011;57712;48.752;11.348;2022-12-07T12:41:52;21.08;;;9.10;;
70303;SDS011;57712;48.752;11.348;2022-12-07T12:46:53;17.00;;;7.93;;
70303;SDS011;57712;48.752;11.348;2022-12-07T12:51:55;15.80;;;7.93;;
70303;SDS011;57712;48.752;11.348;2022-12-07T12:54:24;17.45;;;8.63;;
70303;SDS011;57712;48.752;11.348;2022-12-07T13:02:22;18.70;;;7.78;;
70303;SDS011;57712;48.752;11.348;2022-12-07T13:10:21;17.20;;;6.70;;
70303;SDS011;57712;48.752;11.348;2022-12-07T13:15:49;14.38;;;6.05;;
70303;SDS011;57712;48.752;11.348;2022-12-07T13:28:54;16.70;;;7.45;;
70303;SDS011;57712;48.752;11.348;2022-12-07T13:37:04;14.45;;;6.38;;
70303;SDS011;57712;48.752;11.348;2022-12-07T13:39:45;32.20;;;14.82;;
70303;SDS011;57712;48.752;11.348;2022-12-07T13:42:33;17.98;;;8.05;;
70303;SDS011;57712;48.752;11.348;2022-12-07T13:45:17;51.43;;;21.37;;
70303;SDS011;57712;48.752;11.348;2022-12-07T13:47:49;20.42;;;8.48;;
70303;SDS011;57712;48.752;11.348;2022-12-07T13:50:27;16.15;;;6.60;;
70303;SDS011;57712;48.752;11.348;2022-12-07T13:52:56;19.88;;;8.73;;
70303;SDS011;57712;48.752;11.348;2022-12-07T13:55:24;38.95;;;20.50;;
70303;SDS011;57712;48.752;11.348;2022-12-07T13:57:52;15.00;;;6.50;;
70303;SDS011;57712;48.752;11.348;2022-12-07T14:00:21;13.30;;;6.60;;
70303;SDS011;57712;48.752;11.348;2022-12-07T14:05:31;15.48;;;8.52;;
70303;SDS011;57712;48.752;11.348;2022-12-07T14:08:00;13.23;;;7.22;;
70303;SDS011;57712;48.752;11.348;2022-12-07T14:10:39;13.83;;;7.23;;
70303;SDS011;57712;48.752;11.348;2022-12-07T14:18:55;13.30;;;6.68;;
70303;SDS011;57712;48.752;11.348;2022-12-07T14:21:24;12.95;;;6.15;;
70303;SDS011;57712;48.752;11.348;2022-12-07T14:26:42;12.63;;;5.45;;
70303;SDS011;57712;48.752;11.348;2022-12-07T14:31:49;13.00;;;5.90;;
70303;SDS011;57712;48.752;11.348;2022-12-07T14:34:15;15.93;;;6.45;;
70303;SDS011;57712;48.752;11.348;2022-12-07T14:36:43;12.77;;;5.77;;
70303;SDS011;57712;48.752;11.348;2022-12-07T14:39:10;15.15;;;6.20;;
70303;SDS011;57712;48.752;11.348;2022-12-07T14:41:38;13.43;;;6.05;;
70303;SDS011;57712;48.752;11.348;2022-12-07T14:44:18;19.70;;;7.97;;
70303;SDS011;57712;48.752;11.348;2022-12-07T14:46:52;16.50;;;7.80;;
70303;SDS011;57712;48.752;11.348;2022-12-07T14:49:39;21.07;;;9.20;;
70303;SDS011;57712;48.752;11.348;2022-12-07T14:52:06;16.27;;;8.05;;
70303;SDS011;57712;48.752;11.348;2022-12-07T14:54:59;17.95;;;8.63;;
70303;SDS011;57712;48.752;11.348;2022-12-07T14:57:26;17.65;;;9.10;;
70303;SDS011;57712;48.752;11.348;2022-12-07T14:59:52;21.73;;;10.93;;
70303;SDS011;57712;48.752;11.348;2022-12-07T15:02:19;24.33;;;11.53;;
70303;SDS011;57712;48.752;11.348;2022-12-07T15:04:45;16.92;;;8.93;;
70303;SDS011;57712;48.752;11.348;2022-12-07T15:07:15;17.35;;;8.38;;
70303;SDS011;57712;48.752;11.348;2022-12-07T15:09:47;16.42;;;8.27;;
70303;SDS011;57712;48.752;11.348;2022-12-07T15:12:14;15.93;;;7.55;;
70303;SDS011;57712;48.752;11.348;2022-12-07T15:14:41;15.27;;;7.07;;
70303;SDS011;57712;48.752;11.348;2022-12-07T15:17:09;17.48;;;7.35;;
70303;SDS011;57712;48.752;11.348;2022-12-07T15:19:51;13.80;;;6.00;;
70303;SDS011;57712;48.752;11.348;2022-12-07T15:22:17;11.30;;;4.90;;
70303;SDS011;57712;48.752;11.348;2022-12-07T15:24:44;11.23;;;5.75;;
70303;SDS011;57712;48.752;11.348;2022-12-07T15:27:10;14.60;;;6.33;;
70303;SDS011;57712;48.752;11.348;2022-12-07T15:29:37;14.63;;;6.93;;
70303;SDS011;57712;48.752;11.348;2022-12-07T15:32:03;14.45;;;6.25;;
70303;SDS011;57712;48.752;11.348;2022-12-07T15:34:30;12.27;;;5.70;;
70303;SDS011;57712;48.752;11.348;2022-12-07T15:37:05;11.00;;;5.32;;
70303;SDS011;57712;48.752;11.348;2022-12-07T15:39:32;11.23;;;5.30;;
70303;SDS011;57712;48.752;11.348;2022-12-07T15:41:58;12.63;;;5.78;;
70303;SDS011;57712;48.752;11.348;2022-12-07T15:44:25;12.57;;;5.90;;
70303;SDS011;57712;48.752;11.348;2022-12-07T15:47:10;11.27;;;5.20;;
70303;SDS011;57712;48.752;11.348;2022-12-07T15:49:37;12.52;;;5.28;;
70303;SDS011;57712;48.752;11.348;2022-12-07T15:52:03;12.37;;;5.80;;
70303;SDS011;57712;48.752;11.348;2022-12-07T15:54:30;12.75;;;5.43;;
70303;SDS011;57712;48.752;11.348;2022-12-07T15:56:58;10.90;;;5.80;;
70303;SDS011;57712;48.752;11.348;2022-12-07T15:59:25;11.52;;;6.22;;
70303;SDS011;57712;48.752;11.348;2022-12-07T16:01:53;11.00;;;4.75;;
70303;SDS011;57712;48.752;11.348;2022-12-07T16:04:19;12.87;;;5.10;;
70303;SDS011;57712;48.752;11.348;2022-12-07T16:06:46;12.23;;;5.35;;
70303;SDS011;57712;48.752;11.348;2022-12-07T16:09:13;10.32;;;5.05;;
70303;SDS011;57712;48.752;11.348;2022-12-07T16:11:40;12.32;;;4.80;;
70303;SDS011;57712;48.752;11.348;2022-12-07T16:14:06;11.60;;;5.70;;
70303;SDS011;57712;48.752;11.348;2022-12-07T16:16:33;14.67;;;5.93;;
70303;SDS011;57712;48.752;11.348;2022-12-07T16:18:59;13.35;;;6.35;;
70303;SDS011;57712;48.752;11.348;2022-12-07T16:21:26;14.52;;;7.10;;
70303;SDS011;57712;48.752;11.348;2022-12-07T16:23:52;15.75;;;8.25;;
70303;SDS011;57712;48.752;11.348;2022-12-07T16:26:20;12.32;;;6.60;;
70303;SDS011;57712;48.752;11.348;2022-12-07T16:28:48;14.63;;;7.57;;
70303;SDS011;57712;48.752;11.348;2022-12-07T16:31:16;20.90;;;10.15;;
70303;SDS011;57712;48.752;11.348;2022-12-07T16:33:45;22.80;;;10.52;;
70303;SDS011;57712;48.752;11.348;2022-12-07T16:36:13;16.95;;;9.20;;
70303;SDS011;57712;48.752;11.348;2022-12-07T16:39:02;17.92;;;9.45;;
70303;SDS011;57712;48.752;11.348;2022-12-07T16:41:29;16.07;;;7.83;;
70303;SDS011;57712;48.752;11.348;2022-12-07T16:43:56;16.70;;;9.65;;
70303;SDS011;57712;48.752;11.348;2022-12-07T16:46:23;15.77;;;8.75;;
70303;SDS011;57712;48.752;11.348;2022-12-07T16:48:49;14.52;;;8.10;;
70303;SDS011;57712;48.752;11.348;2022-12-07T16:51:16;15.23;;;8.23;;
70303;SDS011;57712;48.752;11.348;2022-12-07T16:53:42;13.90;;;8.10;;
70303;SDS011;57712;48.752;11.348;2022-12-07T16:56:10;14.73;;;7.35;;
70303;SDS011;57712;48.752;11.348;2022-12-07T16:58:38;16.67;;;8.70;;